MHPL

Puerto Lempira Airport

Airport
ICAO code
MHPL
IATA Code
PEU
Summary
ICAO Region
CARSAM
ICAO Territory
Location

Puerto Lempira, Gracias a Dios Department

Serving
Puerto Lempira
Elevation
33 ft
Coordinates
15° 15' 42" N , 83° 46' 29" W
KCC
Metar
Observation
MHPL 261600Z 00000KT 9999 SCT026TCU SCT090 28/23 Q1014
Station
Puerto Lempira
Date/Time
2023-01-26 17:00:00
Wind direction
Wind speed
00 kts
Lowest cloud amount
scattered clouds
Temperature
28°C
Dew point
23°C
Humidity
74%
QNH
1014 hPa
Weather condition
n/a

Puerto Lempira Airport is an airport serving Puerto Lempira in Gracias a Dios Department, Honduras.

Climatology

Tropical monsoon climate (Köppen climate classification Am)

Airport map

Aerial View

SKYbrary Partners:

Safety knowledge contributed by: